Time;durP1;ratioP1;P1;durP2;ratioP2;P2;SDS_P1;SDS_P2;PMS_P1;PMS_P2;Temp;Humidity;BMP_temperature;BMP_pressure;BME280_temperature;BME280_humidity;BME280_pressure;Samples;Min_cycle;Max_cycle;Signal;HPM_P1;HPM_P2
2023/05/05 00:01:56;;;;;;;5.30;3.10;;;;;;;26.20;28.10;100609.92;108013;1254;72690;-65
2023/05/05 00:04:23;;;;;;;5.90;3.10;;;;;;;26.04;28.26;100611.44;107993;1258;74812;-66
2023/05/05 00:06:50;;;;;;;10.30;3.00;;;;;;;25.99;28.37;100607.05;108015;1254;60393;-67
2023/05/05 00:09:17;;;;;;;4.60;3.10;;;;;;;25.84;28.53;100605.44;108022;1254;61204;-65
2023/05/05 00:11:44;;;;;;;10.00;3.10;;;;;;;25.98;28.40;100605.16;108018;1254;75488;-66
2023/05/05 00:14:10;;;;;;;6.60;3.70;;;;;;;25.83;28.63;100601.20;108028;1254;72413;-65
2023/05/05 00:16:37;;;;;;;6.70;3.60;;;;;;;25.63;28.89;100598.36;107993;1254;74756;-65
2023/05/05 00:19:04;;;;;;;7.30;3.30;;;;;;;25.34;29.27;100601.20;107928;1254;60749;-66
2023/05/05 00:21:31;;;;;;;6.10;3.30;;;;;;;25.37;29.30;100607.42;108021;1254;62043;-65
2023/05/05 00:23:58;;;;;;;7.00;3.30;;;;;;;25.55;29.01;100614.76;108019;1253;74353;-65
2023/05/05 00:26:25;;;;;;;5.60;3.30;;;;;;;25.43;29.18;100621.92;108041;1258;72465;-65
2023/05/05 00:28:52;;;;;;;5.40;3.30;;;;;;;25.49;29.19;100615.46;107996;1254;73918;-62
2023/05/05 00:31:18;;;;;;;8.10;3.60;;;;;;;25.47;29.17;100613.16;107992;1254;62551;-64
2023/05/05 00:33:45;;;;;;;4.40;3.30;;;;;;;25.35;29.37;100616.94;108030;1254;60204;-65
2023/05/05 00:36:13;;;;;;;5.10;3.60;;;;;;;25.57;29.16;100614.05;108078;1254;73960;-66
2023/05/05 00:38:40;;;;;;;7.50;4.10;;;;;;;25.59;29.14;100617.08;108077;1254;72666;-66
2023/05/05 00:41:07;;;;;;;7.80;3.10;;;;;;;26.02;28.65;100623.01;108069;1254;74889;-67
2023/05/05 00:43:34;;;;;;;9.00;3.20;;;;;;;26.19;28.44;100623.14;108001;1254;61927;-67
2023/05/05 00:46:17;;;;;;;6.30;3.60;;;;;;;26.35;28.22;100626.98;108092;1254;62558;-66
2023/05/05 00:48:43;;;;;;;5.20;3.40;;;;;;;25.83;28.76;100627.40;108022;1253;75052;-65
2023/05/05 00:51:11;;;;;;;7.00;3.70;;;;;;;26.04;28.64;100631.04;107865;1254;69288;-66
2023/05/05 00:53:41;;;;;;;9.00;3.60;;;;;;;26.16;28.44;100627.55;107877;1256;71065;-66
2023/05/05 00:56:08;;;;;;;6.30;3.90;;;;;;;26.23;28.39;100632.20;107957;1257;62243;-64
2023/05/05 00:58:35;;;;;;;4.40;3.10;;;;;;;26.25;28.38;100634.16;107960;1254;61221;-64
2023/05/05 01:01:02;;;;;;;7.00;3.40;;;;;;;26.39;28.29;100632.10;107916;1254;75085;-64
2023/05/05 01:03:28;;;;;;;6.30;3.40;;;;;;;26.39;28.27;100627.05;107906;1254;70795;-65
2023/05/05 01:06:05;;;;;;;5.90;3.70;;;;;;;26.41;28.24;100625.17;107762;1254;73135;-65
2023/05/05 01:08:48;;;;;;;8.10;3.50;;;;;;;26.52;28.11;100621.23;107839;1254;61594;-66
2023/05/05 01:11:29;;;;;;;6.80;3.80;;;;;;;26.53;28.12;100618.27;107887;1254;62611;-67
2023/05/05 01:13:59;;;;;;;6.80;3.80;;;;;;;26.45;28.22;100623.61;107761;1254;75124;-66
2023/05/05 01:16:28;;;;;;;7.60;3.50;;;;;;;26.45;28.25;100629.85;107921;1254;71822;-66
2023/05/05 01:18:57;;;;;;;7.80;3.60;;;;;;;26.43;28.36;100624.80;108089;1257;72787;-63
2023/05/05 01:21:42;;;;;;;5.80;3.70;;;;;;;26.05;28.89;100622.38;107824;1254;63981;-64
2023/05/05 01:24:10;;;;;;;6.80;3.30;;;;;;;25.84;29.21;100630.03;107822;1254;60712;-63
2023/05/05 01:27:06;;;;;;;6.40;4.20;;;;;;;26.05;29.08;100627.77;107961;1254;73372;-65
2023/05/05 01:29:39;;;;;;;5.10;3.60;;;;;;;26.14;29.09;100623.42;108025;1256;68933;-65
2023/05/05 01:32:13;;;;;;;6.10;3.10;;;;;;;26.58;28.55;100626.45;108007;1254;75357;-65
2023/05/05 01:34:50;;;;;;;6.40;4.10;;;;;;;26.74;28.39;100624.02;107840;1254;62614;-67
2023/05/05 01:37:35;;;;;;;6.40;3.60;;;;;;;26.78;28.46;100628.89;108080;1254;60468;-65
2023/05/05 01:40:04;;;;;;;8.50;4.10;;;;;;;25.82;29.47;100634.55;108072;1254;75363;-66
2023/05/05 01:42:33;;;;;;;6.20;3.90;;;;;;;24.50;31.19;100630.04;107970;1254;69058;-65
2023/05/05 01:45:00;;;;;;;6.70;3.80;;;;;;;24.64;31.69;100627.07;108031;1257;74376;-66
2023/05/05 01:47:27;;;;;;;9.90;4.40;;;;;;;24.73;31.38;100625.20;107879;1256;63270;-67
2023/05/05 01:49:54;;;;;;;8.90;4.00;;;;;;;24.51;31.81;100625.67;107873;1254;62358;-66
2023/05/05 01:52:20;;;;;;;8.70;3.60;;;;;;;24.45;31.99;100625.27;108045;1254;72929;-66
2023/05/05 01:54:47;;;;;;;8.00;3.70;;;;;;;24.29;32.09;100623.25;107967;1254;71326;-66
2023/05/05 01:57:14;;;;;;;5.20;3.80;;;;;;;24.91;31.62;100622.30;107854;1254;73452;-66
2023/05/05 01:59:41;;;;;;;6.70;3.80;;;;;;;25.05;31.18;100620.14;107903;1254;62047;-66
2023/05/05 02:02:09;;;;;;;10.10;4.60;;;;;;;24.21;32.68;100621.27;108011;1254;60798;-65
2023/05/05 02:04:40;;;;;;;7.70;3.70;;;;;;;24.42;32.61;100624.98;108016;1254;74673;-66
2023/05/05 02:07:06;;;;;;;7.10;3.80;;;;;;;24.86;32.10;100625.77;107818;1254;72092;-63
2023/05/05 02:09:34;;;;;;;10.10;5.00;;;;;;;25.48;31.42;100627.95;107777;1254;75051;-64
2023/05/05 02:12:01;;;;;;;9.40;4.20;;;;;;;25.60;31.30;100627.27;107824;1254;63368;-63
2023/05/05 02:14:28;;;;;;;6.10;4.00;;;;;;;26.01;30.75;100628.27;107882;1254;59551;-66
2023/05/05 02:16:55;;;;;;;7.40;3.70;;;;;;;26.37;30.35;100627.45;108085;1254;74549;-66
2023/05/05 02:19:26;;;;;;;7.00;4.50;;;;;;;26.03;30.78;100635.08;107924;1254;70642;-64
2023/05/05 02:21:53;;;;;;;;;;;;;;;26.09;30.83;100638.02;107955;1254;71326;-64
2023/05/05 02:24:20;;;;;;;7.90;3.70;;;;;;;26.13;30.66;100632.19;108020;1254;62012;-64
2023/05/05 02:26:48;;;;;;;7.30;4.00;;;;;;;25.77;31.02;100633.77;108101;1254;62021;-65
2023/05/05 02:29:19;;;;;;;6.00;4.30;;;;;;;25.85;30.98;100633.95;107867;1254;75447;-66
2023/05/05 02:31:49;;;;;;;6.10;4.10;;;;;;;25.76;31.10;100636.75;108052;1254;72796;-67
2023/05/05 02:34:24;;;;;;;6.60;4.70;;;;;;;25.57;31.42;100636.49;107893;1254;74986;-66
2023/05/05 02:36:53;;;;;;;8.80;4.60;;;;;;;25.76;31.19;100634.38;108087;1254;60297;-67
2023/05/05 02:39:31;;;;;;;8.90;3.70;;;;;;;25.51;31.28;100638.98;107948;1254;61290;-65
2023/05/05 02:42:01;;;;;;;10.40;4.30;;;;;;;25.53;31.34;100634.70;107852;1254;76284;-65
2023/05/05 02:44:30;;;;;;;10.00;4.30;;;;;;;25.24;31.80;100631.60;107846;1254;72379;-66
2023/05/05 02:46:57;;;;;;;6.90;4.40;;;;;;;25.09;31.91;100628.45;108075;1254;72687;-65
2023/05/05 02:49:25;;;;;;;6.30;4.10;;;;;;;24.78;32.52;100623.34;108071;1255;63524;-65
2023/05/05 02:51:56;;;;;;;7.20;4.20;;;;;;;25.27;31.70;100620.55;108056;1254;61096;-65
2023/05/05 02:54:25;;;;;;;8.30;4.70;;;;;;;25.18;31.86;100618.30;107985;1254;74296;-65
2023/05/05 02:56:52;;;;;;;10.40;4.90;;;;;;;24.92;32.30;100617.58;108009;1254;72195;-65
2023/05/05 02:59:41;;;;;;;10.10;4.80;;;;;;;25.45;31.46;100613.52;107928;1256;72586;-65
2023/05/05 03:02:37;;;;;;;7.50;5.00;;;;;;;24.98;32.03;100619.19;108008;1254;60333;-65
2023/05/05 03:05:31;;;;;;;6.90;4.10;;;;;;;25.08;31.96;100622.02;107882;1254;62288;-65
2023/05/05 03:08:03;;;;;;;6.90;4.20;;;;;;;25.05;32.01;100629.54;107874;1254;74885;-64
2023/05/05 03:10:35;;;;;;;6.80;4.70;;;;;;;25.63;31.22;100630.73;107797;1259;69119;-66
2023/05/05 03:13:02;;;;;;;9.10;5.30;;;;;;;25.75;30.96;100629.77;107945;1255;71619;-65
2023/05/05 03:15:40;;;;;;;9.30;4.80;;;;;;;25.57;31.23;100634.20;107923;1254;62880;-66
2023/05/05 03:18:07;;;;;;;8.90;4.90;;;;;;;25.85;30.90;100631.19;107915;1254;62063;-62
2023/05/05 03:20:35;;;;;;;11.40;4.40;;;;;;;25.41;31.40;100630.95;107862;1259;73738;-66
2023/05/05 03:23:06;;;;;;;7.40;4.30;;;;;;;25.43;31.31;100631.69;107834;1254;70183;-66
2023/05/05 03:25:47;;;;;;;8.30;4.50;;;;;;;25.60;31.20;100633.33;107786;1257;73485;-67
2023/05/05 03:28:26;;;;;;;6.80;4.60;;;;;;;25.67;31.10;100636.41;107909;1257;60453;-66
2023/05/05 03:30:53;;;;;;;9.20;4.60;;;;;;;25.70;31.01;100638.31;107843;1254;60755;-66
2023/05/05 03:33:21;;;;;;;10.20;4.30;;;;;;;25.71;30.90;100640.89;107688;1254;75779;-67
2023/05/05 03:35:48;;;;;;;9.70;4.30;;;;;;;25.54;31.13;100648.61;107986;1254;69853;-67
2023/05/05 03:38:16;;;;;;;14.50;4.40;;;;;;;25.45;31.24;100646.80;108012;1254;72981;-67
2023/05/05 03:40:44;;;;;;;8.40;4.50;;;;;;;25.59;31.06;100647.98;107958;1257;61344;-65
2023/05/05 03:43:14;;;;;;;6.40;3.80;;;;;;;25.75;30.74;100645.40;108003;1254;60444;-66
2023/05/05 03:45:41;;;;;;;8.50;4.10;;;;;;;25.74;30.77;100641.74;108017;1254;76352;-66
2023/05/05 03:48:09;;;;;;;6.10;3.90;;;;;;;25.53;30.85;100646.20;107980;1254;72528;-67
2023/05/05 03:50:37;;;;;;;6.10;4.20;;;;;;;25.36;31.04;100644.50;107906;1254;73682;-67
2023/05/05 03:53:04;;;;;;;4.80;3.40;;;;;;;24.95;31.60;100639.23;107946;1254;60506;-66
2023/05/05 03:55:32;;;;;;;9.70;4.40;;;;;;;24.90;31.66;100639.44;108067;1254;60219;-66
2023/05/05 03:57:59;;;;;;;8.90;4.40;;;;;;;25.03;31.45;100646.73;107867;1254;73738;-67
2023/05/05 04:00:26;;;;;;;7.50;3.70;;;;;;;25.42;31.07;100647.70;107925;1254;71129;-65
2023/05/05 04:02:53;;;;;;;9.20;4.20;;;;;;;25.96;30.20;100654.10;108069;1254;71843;-66
2023/05/05 04:05:21;;;;;;;7.60;4.30;;;;;;;25.30;30.93;100659.28;107970;1254;63396;-67
2023/05/05 04:07:49;;;;;;;5.80;4.10;;;;;;;25.42;30.93;100657.98;108060;1254;60839;-67
2023/05/05 04:10:18;;;;;;;8.60;4.30;;;;;;;25.55;30.67;100656.48;108048;1253;76293;-66
2023/05/05 04:12:45;;;;;;;9.80;4.30;;;;;;;25.39;30.90;100661.70;108038;1254;69968;-65
2023/05/05 04:15:12;;;;;;;10.50;4.70;;;;;;;25.53;30.66;100654.10;107943;1254;74607;-66
2023/05/05 04:17:39;;;;;;;10.10;4.20;;;;;;;25.66;30.43;100650.16;108114;1257;61249;-67
2023/05/05 04:20:08;;;;;;;8.40;4.10;;;;;;;25.54;30.65;100641.43;108093;1254;60297;-66
2023/05/05 04:22:35;;;;;;;6.80;4.10;;;;;;;25.32;30.85;100635.73;107978;1254;75940;-65
2023/05/05 04:25:03;;;;;;;7.90;4.20;;;;;;;25.67;30.57;100633.94;107999;1254;70379;-66
2023/05/05 04:27:30;;;;;;;9.50;4.40;;;;;;;25.62;30.55;100637.83;107897;1254;74981;-66
2023/05/05 04:29:57;;;;;;;5.20;3.70;;;;;;;25.46;30.85;100644.47;108016;1254;61200;-65
2023/05/05 04:32:24;;;;;;;4.90;3.50;;;;;;;25.52;31.12;100651.46;108023;1254;62306;-67
2023/05/05 04:34:52;;;;;;;7.80;4.90;;;;;;;25.71;30.84;100655.65;108020;1254;76017;-65
2023/05/05 04:37:19;;;;;;;8.00;4.30;;;;;;;25.68;30.98;100663.38;107988;1254;72895;-67
2023/05/05 04:39:46;;;;;;;5.30;4.00;;;;;;;25.60;31.22;100666.02;107920;1254;72583;-66
2023/05/05 04:42:13;;;;;;;5.70;4.00;;;;;;;25.70;31.27;100667.87;107894;1254;63176;-68
2023/05/05 04:44:40;;;;;;;6.20;4.50;;;;;;;25.86;31.14;100666.92;107976;1254;62612;-67
2023/05/05 04:47:07;;;;;;;8.80;5.00;;;;;;;25.63;31.37;100667.38;108031;1254;75911;-67
2023/05/05 04:49:34;;;;;;;7.80;4.20;;;;;;;25.57;31.48;100666.52;108118;1254;72320;-67
2023/05/05 04:52:01;;;;;;;11.00;4.50;;;;;;;25.38;31.62;100669.67;108051;1254;74658;-67
2023/05/05 04:54:28;;;;;;;6.70;4.10;;;;;;;25.32;31.56;100673.64;108060;1257;62268;-68
2023/05/05 04:56:56;;;;;;;7.90;4.10;;;;;;;25.35;31.69;100671.64;108075;1254;61224;-66
2023/05/05 04:59:23;;;;;;;5.40;3.80;;;;;;;24.95;32.35;100676.75;108000;1254;73388;-65
2023/05/05 05:01:50;;;;;;;9.50;4.00;;;;;;;25.32;31.92;100682.45;108077;1254;72410;-67
2023/05/05 05:04:17;;;;;;;8.60;4.30;;;;;;;25.56;31.79;100682.59;108069;1254;72200;-67
2023/05/05 05:06:44;;;;;;;7.60;4.70;;;;;;;25.54;31.67;100681.19;108050;1254;60440;-66
2023/05/05 05:09:11;;;;;;;6.30;4.40;;;;;;;25.49;31.84;100679.86;107912;1253;60230;-66
2023/05/05 05:11:38;;;;;;;5.80;4.20;;;;;;;25.45;31.85;100679.42;107943;1254;76074;-67
2023/05/05 05:14:05;;;;;;;11.80;4.30;;;;;;;25.36;31.86;100678.65;108080;1254;69593;-67
2023/05/05 05:16:32;;;;;;;9.60;5.00;;;;;;;25.18;32.25;100679.02;108062;1254;74807;-67
2023/05/05 05:18:59;;;;;;;8.10;4.70;;;;;;;24.48;33.28;100682.27;108032;1254;64383;-67
2023/05/05 05:21:28;;;;;;;8.90;5.00;;;;;;;24.02;33.84;100687.46;108082;1259;61042;-66
2023/05/05 05:23:55;;;;;;;8.40;4.70;;;;;;;24.01;34.02;100685.73;108106;1254;75925;-67
2023/05/05 05:26:23;;;;;;;9.10;5.00;;;;;;;24.50;33.56;100689.48;108090;1254;72445;-68
2023/05/05 05:28:50;;;;;;;7.30;4.10;;;;;;;24.64;33.56;100694.23;108059;1258;72603;-67
2023/05/05 05:31:17;;;;;;;8.80;4.50;;;;;;;24.92;33.13;100697.84;108133;1254;63103;-68
2023/05/05 05:33:45;;;;;;;8.90;4.40;;;;;;;24.75;33.24;100702.39;108111;1254;61995;-68
2023/05/05 05:36:12;;;;;;;7.40;4.00;;;;;;;24.64;33.47;100700.11;108084;1254;76129;-68
2023/05/05 05:38:39;;;;;;;6.80;4.30;;;;;;;24.96;33.17;100700.35;108046;1255;72871;-67
2023/05/05 05:41:06;;;;;;;7.30;4.10;;;;;;;25.28;32.56;100697.88;107963;1257;74137;-67
2023/05/05 05:43:33;;;;;;;7.60;4.10;;;;;;;25.36;32.45;100698.60;107921;1257;61868;-66
2023/05/05 05:46:02;;;;;;;6.50;4.10;;;;;;;25.38;32.57;100699.38;107957;1255;60276;-66
2023/05/05 05:48:29;;;;;;;5.70;3.50;;;;;;;25.17;32.97;100699.77;107934;1254;73418;-67
2023/05/05 05:50:56;;;;;;;5.60;3.40;;;;;;;25.28;32.79;100695.91;107973;1255;71531;-67
2023/05/05 05:53:23;;;;;;;6.30;3.50;;;;;;;25.86;32.29;100698.52;107884;1257;72611;-66
2023/05/05 05:55:51;;;;;;;5.90;3.40;;;;;;;26.02;32.13;100701.40;107912;1254;63640;-68
2023/05/05 05:58:18;;;;;;;6.30;3.40;;;;;;;26.22;32.16;100705.50;108019;1254;62350;-66
2023/05/05 06:00:46;;;;;;;6.70;3.30;;;;;;;26.79;31.36;100704.02;107915;1253;75262;-67
2023/05/05 06:03:13;;;;;;;4.20;2.90;;;;;;;27.23;30.58;100702.69;107745;1254;72797;-69
2023/05/05 06:05:40;;;;;;;5.30;2.70;;;;;;;27.46;30.36;100702.11;107883;1254;72291;-67
2023/05/05 06:08:08;;;;;;;4.00;2.80;;;;;;;27.61;30.05;100698.94;107977;1254;64036;-67
2023/05/05 06:10:38;;;;;;;5.00;2.70;;;;;;;27.51;29.95;100701.95;108006;1258;62904;-67
2023/05/05 06:13:08;;;;;;;2.80;2.30;;;;;;;28.03;30.05;100700.73;107913;1254;75818;-68
2023/05/05 06:15:38;;;;;;;4.30;2.30;;;;;;;29.08;28.87;100694.02;108082;1254;71862;-68
2023/05/05 06:18:05;;;;;;;5.50;2.30;;;;;;;29.80;27.87;100693.95;107933;1257;74730;-67
2023/05/05 06:20:32;;;;;;;3.70;2.00;;;;;;;30.60;27.12;100694.78;107863;1254;60597;-66
2023/05/05 06:22:59;;;;;;;5.30;2.60;;;;;;;30.83;25.98;100693.44;107923;1254;61157;-68
2023/05/05 06:25:27;;;;;;;5.00;1.90;;;;;;;31.29;25.07;100693.77;108047;1254;74927;-68
2023/05/05 06:27:54;;;;;;;3.80;1.90;;;;;;;31.79;23.82;100694.66;108022;1254;72511;-68
2023/05/05 06:30:20;;;;;;;7.80;2.10;;;;;;;31.96;23.29;100693.52;107996;1254;73011;-67
2023/05/05 06:32:47;;;;;;;3.80;2.20;;;;;;;32.20;22.45;100684.20;107997;1254;60324;-68
2023/05/05 06:35:14;;;;;;;5.70;2.30;;;;;;;32.11;22.28;100689.41;107936;1254;60174;-67
2023/05/05 06:37:41;;;;;;;5.30;2.10;;;;;;;31.92;22.55;100690.41;108009;1258;73526;-68
2023/05/05 06:40:09;;;;;;;4.00;2.40;;;;;;;32.01;22.38;100692.02;108003;1254;72568;-68
2023/05/05 06:42:36;;;;;;;5.50;2.30;;;;;;;32.09;22.20;100686.33;108121;1254;74983;-69
2023/05/05 06:45:04;;;;;;;2.80;1.90;;;;;;;32.04;21.77;100688.75;108105;1254;62347;-68
2023/05/05 06:47:31;;;;;;;6.40;2.10;;;;;;;32.20;21.62;100686.67;108109;1253;62123;-67
2023/05/05 06:49:59;;;;;;;5.70;2.20;;;;;;;32.40;21.29;100688.98;108018;1254;73586;-67
2023/05/05 06:52:26;;;;;;;6.00;2.30;;;;;;;32.96;20.45;100688.04;107997;1254;71361;-69
2023/05/05 06:54:53;;;;;;;4.90;1.90;;;;;;;32.92;19.64;100687.60;107982;1254;75158;-69
2023/05/05 06:57:20;;;;;;;7.00;2.40;;;;;;;32.85;19.45;100687.13;107973;1254;62174;-69
2023/05/05 06:59:46;;;;;;;7.70;2.00;;;;;;;33.22;19.44;100686.28;107977;1258;62191;-68
2023/05/05 07:02:13;;;;;;;5.60;1.70;;;;;;;33.10;19.53;100683.39;107887;1253;76858;-68
2023/05/05 07:04:41;;;;;;;3.60;1.80;;;;;;;33.42;19.19;100686.27;107998;1254;72047;-68
2023/05/05 07:07:08;;;;;;;3.10;1.70;;;;;;;33.46;18.80;100684.55;108054;1254;74133;-69
2023/05/05 07:09:35;;;;;;;5.20;1.70;;;;;;;33.53;18.50;100685.88;107988;1257;60571;-67
2023/05/05 07:12:02;;;;;;;5.70;1.60;;;;;;;33.28;18.39;100688.08;108018;1254;60540;-67
2023/05/05 07:14:29;;;;;;;3.70;1.90;;;;;;;33.19;18.66;100690.98;108046;1254;76652;-69
2023/05/05 07:16:56;;;;;;;6.30;1.60;;;;;;;33.20;18.15;100694.66;108080;1253;72206;-68
2023/05/05 07:19:23;;;;;;;4.00;1.70;;;;;;;32.72;18.15;100698.75;108060;1254;74968;-71
2023/05/05 07:21:50;;;;;;;6.10;1.50;;;;;;;32.62;18.37;100699.46;108061;1254;62683;-69
2023/05/05 07:24:17;;;;;;;11.20;1.70;;;;;;;32.55;18.65;100700.45;108053;1254;62440;-68
2023/05/05 07:26:44;;;;;;;3.20;1.90;;;;;;;32.97;18.39;100693.77;108024;1254;74350;-68
2023/05/05 07:29:11;;;;;;;6.40;1.80;;;;;;;33.01;18.17;100689.82;108095;1254;72616;-68
2023/05/05 07:31:38;;;;;;;3.70;2.00;;;;;;;33.12;17.89;100691.15;108040;1255;75003;-67
2023/05/05 07:34:04;;;;;;;3.40;1.70;;;;;;;33.23;17.91;100690.28;108044;1258;60815;-68
2023/05/05 07:36:31;;;;;;;3.20;1.70;;;;;;;33.79;17.78;100684.95;108059;1254;60984;-68
2023/05/05 07:38:59;;;;;;;2.30;1.50;;;;;;;33.69;17.70;100678.80;108046;1254;74161;-68
2023/05/05 07:41:26;;;;;;;3.60;1.70;;;;;;;33.61;17.47;100673.49;107979;1254;72825;-69
2023/05/05 07:43:53;;;;;;;4.00;1.70;;;;;;;33.83;17.43;100675.91;108027;1254;72006;-68
2023/05/05 07:46:19;;;;;;;2.40;1.50;;;;;;;34.54;17.06;100677.21;108027;1254;61154;-69
2023/05/05 07:48:46;;;;;;;3.70;1.70;;;;;;;34.45;16.72;100679.04;108040;1253;60266;-68
2023/05/05 07:51:13;;;;;;;3.40;1.60;;;;;;;34.44;16.72;100681.58;108039;1254;67009;-67
2023/05/05 07:53:40;;;;;;;2.80;1.40;;;;;;;34.23;17.16;100675.37;108058;1254;70169;-68
2023/05/05 07:56:07;;;;;;;5.00;1.90;;;;;;;34.55;17.14;100676.45;107991;1254;65088;-68
2023/05/05 07:58:34;;;;;;;2.50;1.50;;;;;;;34.87;16.55;100676.33;107982;1254;60463;-67
2023/05/05 08:01:01;;;;;;;5.40;1.90;;;;;;;34.61;16.43;100679.32;108018;1254;60207;-68
2023/05/05 08:03:28;;;;;;;10.30;2.10;;;;;;;34.59;16.51;100680.02;107996;1253;67055;-68
2023/05/05 08:05:55;;;;;;;3.90;2.00;;;;;;;34.58;16.54;100681.70;108007;1254;63945;-69
2023/05/05 08:08:23;;;;;;;5.40;1.90;;;;;;;34.38;16.30;100684.64;107995;1254;65968;-69
2023/05/05 08:10:51;;;;;;;2.60;1.30;;;;;;;34.23;16.23;100684.77;108004;1254;62365;-68
2023/05/05 08:13:19;;;;;;;3.20;1.70;;;;;;;33.98;16.61;100683.27;108039;1254;62389;-68
2023/05/05 08:15:46;;;;;;;2.40;1.30;;;;;;;33.82;16.93;100686.52;108066;1254;67370;-68
2023/05/05 08:18:13;;;;;;;3.40;1.80;;;;;;;34.30;16.58;100680.61;108042;1254;71596;-68
2023/05/05 08:20:40;;;;;;;4.10;1.70;;;;;;;34.33;16.39;100682.98;107993;1254;72844;-68
2023/05/05 08:23:07;;;;;;;3.80;1.80;;;;;;;34.26;16.35;100680.26;107979;1255;60699;-69
2023/05/05 08:25:33;;;;;;;4.40;1.80;;;;;;;34.22;16.67;100678.04;107970;1254;62380;-67
2023/05/05 08:28:00;;;;;;;7.20;2.20;;;;;;;34.69;16.72;100674.70;108045;1254;66378;-67
2023/05/05 08:30:27;;;;;;;5.70;1.90;;;;;;;35.11;16.41;100674.58;108012;1254;62730;-65
2023/05/05 08:32:54;;;;;;;4.30;2.20;;;;;;;35.50;16.33;100672.18;107956;1256;66048;-67
2023/05/05 08:35:21;;;;;;;5.70;2.70;;;;;;;36.18;16.06;100678.77;107993;1254;58946;-68
2023/05/05 08:37:49;;;;;;;6.50;3.10;;;;;;;36.27;15.52;100680.16;108017;1254;60316;-67
2023/05/05 08:40:16;;;;;;;10.20;3.30;;;;;;;35.59;15.58;100683.11;108101;1254;67380;-67
2023/05/05 08:42:44;;;;;;;4.50;2.10;;;;;;;35.78;15.56;100686.29;107953;1253;63287;-68
2023/05/05 08:45:11;;;;;;;3.20;2.00;;;;;;;35.61;15.32;100687.05;108119;1254;66272;-68
2023/05/05 08:47:38;;;;;;;8.70;2.00;;;;;;;35.13;15.59;100679.81;108067;1254;60443;-67
2023/05/05 08:50:07;;;;;;;7.20;2.40;;;;;;;34.94;15.95;100679.01;108080;1253;60451;-68
2023/05/05 08:52:42;;;;;;;10.80;3.00;;;;;;;35.21;15.82;100680.59;108098;1258;66961;-68
2023/05/05 08:55:14;;;;;;;11.30;2.70;;;;;;;35.79;15.65;100682.23;108045;1253;63797;-68
2023/05/05 08:57:51;;;;;;;18.50;10.20;;;;;;;36.07;15.29;100674.73;107999;1254;65901;-66
2023/05/05 09:00:18;;;;;;;9.00;2.80;;;;;;;35.78;14.63;100671.70;108041;1253;60305;-69
2023/05/05 09:02:45;;;;;;;5.20;2.20;;;;;;;35.48;15.23;100666.88;108094;1254;60296;-68
2023/05/05 09:05:13;;;;;;;4.90;2.20;;;;;;;35.95;15.16;100667.00;108101;1254;67088;-69
2023/05/05 09:07:42;;;;;;;10.50;2.90;;;;;;;36.33;14.78;100668.35;108089;1254;63299;-68
2023/05/05 09:10:10;;;;;;;3.00;1.60;;;;;;;36.81;14.60;100666.23;108119;1254;65098;-69
2023/05/05 09:12:40;;;;;;;5.40;1.90;;;;;;;36.38;14.39;100673.48;108090;1254;60469;-67
2023/05/05 09:15:11;;;;;;;5.80;1.50;;;;;;;36.23;14.44;100666.21;108064;1253;60364;-68
2023/05/05 09:17:38;;;;;;;;;;;;;;;36.41;14.32;100665.42;108004;1255;67184;-69
2023/05/05 09:20:12;;;;;;;5.20;1.80;;;;;;;36.60;14.27;100671.09;108066;1254;63406;-69
2023/05/05 09:22:43;;;;;;;4.00;2.10;;;;;;;36.62;14.12;100670.13;108064;1254;65959;-68
2023/05/05 09:25:12;;;;;;;5.60;2.00;;;;;;;36.55;13.94;100671.31;108044;1254;60405;-69
2023/05/05 09:27:44;;;;;;;3.30;1.90;;;;;;;36.67;13.80;100672.61;108134;1254;60640;-67
2023/05/05 09:30:16;;;;;;;5.90;1.90;;;;;;;37.03;13.68;100667.84;108087;1259;67135;-70
2023/05/05 09:32:47;;;;;;;3.40;1.60;;;;;;;37.40;13.24;100659.52;108024;1259;62626;-71
2023/05/05 09:35:15;;;;;;;4.80;1.60;;;;;;;37.56;13.04;100651.73;108100;1253;66012;-71
2023/05/05 09:37:41;;;;;;;4.50;1.90;;;;;;;37.50;13.20;100654.26;107963;1254;60388;-70
2023/05/05 09:40:09;;;;;;;4.70;1.70;;;;;;;36.91;13.42;100656.65;108008;1259;60328;-70
2023/05/05 09:42:36;;;;;;;3.90;1.60;;;;;;;36.19;14.13;100657.39;108026;1254;67332;-70
2023/05/05 09:45:24;;;;;;;2.60;1.70;;;;;;;35.83;14.29;100656.16;107964;1254;62674;-70
2023/05/05 09:47:51;;;;;;;3.10;1.60;;;;;;;36.02;14.73;100647.05;108006;1259;65033;-70
2023/05/05 09:50:28;;;;;;;4.80;1.40;;;;;;;36.42;14.20;100646.05;107975;1254;60277;-69
2023/05/05 09:53:00;;;;;;;;;;;;;;;36.50;13.86;100651.32;107996;1255;60222;-68
2023/05/05 09:55:27;;;;;;;3.70;1.60;;;;;;;36.32;14.04;100646.30;107997;1253;67435;-68
2023/05/05 09:57:54;;;;;;;4.40;1.70;;;;;;;36.25;13.69;100652.66;108073;1255;63746;-69
2023/05/05 10:00:38;;;;;;;3.10;1.70;;;;;;;36.20;13.78;100652.74;108077;1254;64922;-67
2023/05/05 10:03:05;;;;;;;4.70;1.70;;;;;;;36.60;13.77;100647.28;107915;1257;60354;-69
2023/05/05 10:05:32;;;;;;;3.10;1.80;;;;;;;36.79;13.60;100643.65;108067;1254;60345;-69
2023/05/05 10:08:11;;;;;;;2.30;1.40;;;;;;;36.83;12.59;100648.95;107927;1254;66045;-71
2023/05/05 10:10:53;;;;;;;4.40;1.60;;;;;;;36.58;12.45;100644.02;108070;1254;63780;-69
2023/05/05 10:13:23;;;;;;;2.90;1.30;;;;;;;36.54;13.02;100641.11;108113;1259;65121;-69
2023/05/05 10:15:54;;;;;;;4.00;1.70;;;;;;;36.59;12.78;100643.02;108113;1254;59199;-69
2023/05/05 10:18:26;;;;;;;2.50;1.40;;;;;;;36.48;12.54;100639.66;108113;1253;60415;-69
2023/05/05 10:21:02;;;;;;;2.70;1.10;;;;;;;36.27;12.76;100640.26;108085;1254;67014;-70
2023/05/05 10:23:49;;;;;;;2.20;1.10;;;;;;;36.24;13.34;100636.38;108069;1258;63369;-70
2023/05/05 10:26:16;;;;;;;4.70;1.90;;;;;;;36.31;12.96;100632.07;108071;1254;66077;-69
2023/05/05 10:30:48;;;;;;;6.30;1.50;;;;;;;34.08;14.54;100632.27;104797;1292;601294;-69
2023/05/05 10:33:18;;;;;;;1.90;1.30;;;;;;;36.33;12.67;100629.28;107094;1267;59100;-70
2023/05/05 10:36:00;;;;;;;3.80;1.50;;;;;;;37.09;12.29;100627.78;107308;1266;59238;-69
2023/05/05 10:38:28;;;;;;;2.20;1.40;;;;;;;37.71;12.36;100624.17;107259;1266;65750;-68
2023/05/05 10:40:56;;;;;;;5.30;1.50;;;;;;;37.48;12.04;100622.92;107250;1265;63816;-71
2023/05/05 10:43:23;;;;;;;3.20;1.50;;;;;;;36.77;12.02;100620.65;107158;1267;171883;-70
2023/05/05 10:45:49;;;;;;;4.50;1.60;;;;;;;36.32;11.58;100623.73;107368;1263;59240;-69
2023/05/05 10:48:24;;;;;;;4.60;1.70;;;;;;;35.93;11.80;100627.41;107384;1264;59218;-69
2023/05/05 10:50:53;;;;;;;2.70;1.50;;;;;;;36.00;12.15;100622.02;107398;1264;74444;-69
2023/05/05 10:53:26;;;;;;;4.10;1.50;;;;;;;36.30;12.06;100617.11;107376;1264;62627;-69
2023/05/05 10:56:07;;;;;;;8.40;1.80;;;;;;;36.79;12.27;100611.83;107862;1260;66042;-69
2023/05/05 10:58:35;;;;;;;5.40;1.80;;;;;;;36.98;12.50;100611.27;107699;1260;58176;-69
2023/05/05 11:01:29;;;;;;;3.60;1.50;;;;;;;36.75;12.47;100610.39;107802;1257;59656;-69
2023/05/05 11:04:18;;;;;;;9.90;1.70;;;;;;;36.46;12.84;100607.41;107810;1257;66540;-70
2023/05/05 11:07:07;;;;;;;7.10;1.70;;;;;;;36.63;12.89;100603.56;107787;1256;63778;-70
2023/05/05 11:09:56;;;;;;;3.10;1.40;;;;;;;36.89;12.68;100601.73;107721;1260;65004;-68
2023/05/05 11:12:23;;;;;;;2.90;1.60;;;;;;;36.97;12.47;100597.17;107737;1259;59500;-70
2023/05/05 11:15:26;;;;;;;3.70;1.80;;;;;;;37.17;12.68;100596.98;107793;1257;59397;-67
2023/05/05 11:17:53;;;;;;;8.40;1.80;;;;;;;37.13;12.96;100590.72;107303;1265;66376;-67
2023/05/05 11:20:38;;;;;;;3.20;1.60;;;;;;;37.14;12.61;100592.66;107778;1257;63288;-69
2023/05/05 11:23:05;;;;;;;6.30;2.10;;;;;;;37.22;12.30;100589.06;107839;1257;64971;-68
2023/05/05 11:25:35;;;;;;;4.40;1.60;;;;;;;36.67;12.72;100588.02;107809;1257;59526;-67
2023/05/05 11:28:16;;;;;;;3.70;1.40;;;;;;;36.33;13.34;100586.74;107792;1257;59609;-68
2023/05/05 11:30:55;;;;;;;5.80;2.00;;;;;;;36.47;13.55;100583.55;107806;1257;66489;-70